Time;durP1;ratioP1;P1;durP2;ratioP2;P2;SDS_P1;SDS_P2;PMS_P1;PMS_P2;Temp;Humidity;BMP_temperature;BMP_pressure;BME280_temperature;BME280_humidity;BME280_pressure;Samples;Min_cycle;Max_cycle;Signal;HPM_P1;HPM_P2
2021/03/03 00:01:28;;;;;;;;;31.00;31.00;;;;;4.67;71.83;101638.44;5084855;28;11524;-78
2021/03/03 00:04:24;;;;;;;;;39.75;32.50;;;;;4.78;71.69;101631.09;5079564;28;11540;-76
2021/03/03 00:07:19;;;;;;;;;34.75;30.75;;;;;4.78;71.97;101631.09;5081509;28;11479;-78
2021/03/03 00:09:46;;;;;;;;;38.75;31.00;;;;;4.64;71.99;101629.97;5085127;28;11482;-78
2021/03/03 00:12:41;;;;;;;;;25.00;19.75;;;;;4.55;72.02;101629.66;5081618;28;11585;-78
2021/03/03 00:15:37;;;;;;;;;28.75;28.25;;;;;4.69;71.75;101628.06;5070292;28;11440;-78
2021/03/03 00:18:33;;;;;;;;;32.00;31.25;;;;;4.72;71.40;101634.91;5081604;28;12192;-78
2021/03/03 00:21:29;;;;;;;;;33.00;32.50;;;;;4.54;71.92;101628.00;5084434;28;11488;-77
2021/03/03 00:24:12;;;;;;;;;35.50;32.25;;;;;4.50;72.54;101626.06;5082939;28;11478;-77
2021/03/03 00:27:07;;;;;;;;;23.00;23.00;;;;;4.43;72.29;101635.34;5084369;28;11492;-76
2021/03/03 00:30:05;;;;;;;;;35.00;27.75;;;;;4.33;73.17;101631.72;5083486;28;11589;-78
2021/03/03 00:33:00;;;;;;;;;34.25;25.00;;;;;4.47;72.44;101635.66;5083925;28;12178;-77
2021/03/03 00:35:57;;;;;;;;;29.75;27.00;;;;;4.58;72.05;101631.84;5082989;28;11449;-78
2021/03/03 00:38:30;;;;;;;;;31.75;31.00;;;;;4.34;72.44;101636.13;5065904;28;11521;-78
2021/03/03 00:40:57;;;;;;;;;23.75;23.75;;;;;4.34;73.04;101636.94;5063924;28;11523;-78
2021/03/03 00:43:56;;;;;;;;;27.75;27.75;;;;;4.45;72.27;101641.41;5074798;28;11502;-78
2021/03/03 00:46:53;;;;;;;;;31.25;27.50;;;;;4.42;72.66;101639.16;5069370;28;11456;-78
2021/03/03 00:49:48;;;;;;;;;39.50;33.75;;;;;4.35;72.66;101635.84;5080900;28;11583;-78
2021/03/03 00:52:44;;;;;;;;;40.25;39.50;;;;;4.46;72.51;101642.22;5082695;28;11460;-77
2021/03/03 00:55:40;;;;;;;;;36.00;34.50;;;;;4.40;72.43;101654.22;5068722;28;12269;-77
2021/03/03 00:58:36;;;;;;;;;50.50;44.00;;;;;4.40;72.71;101646.03;5075829;28;11448;-77
2021/03/03 01:01:11;;;;;;;;;31.75;31.00;;;;;4.34;72.80;101647.06;5071028;28;11479;-78
2021/03/03 01:04:07;;;;;;;;;30.25;27.00;;;;;4.43;72.23;101646.28;5081469;28;11528;-77
2021/03/03 01:06:37;;;;;;;;;27.75;25.50;;;;;4.45;72.47;101657.00;5072093;28;11466;-77
2021/03/03 01:09:33;;;;;;;;;29.00;28.75;;;;;4.53;72.18;101656.50;5081486;28;11530;-78
2021/03/03 01:12:28;;;;;;;;;42.25;36.50;;;;;4.34;72.50;101647.06;5082295;28;11488;-77
2021/03/03 01:15:24;;;;;;;;;33.75;32.00;;;;;4.44;72.38;101660.81;5082312;28;12148;-76
2021/03/03 01:18:19;;;;;;;;;33.75;30.50;;;;;4.24;72.88;101656.06;5082583;28;11466;-75
2021/03/03 01:20:48;;;;;;;;;33.50;32.50;;;;;4.35;72.55;101654.19;5066021;28;11467;-77
2021/03/03 01:23:43;;;;;;;;;35.50;32.50;;;;;4.60;71.67;101651.59;5074037;28;11488;-76
2021/03/03 01:26:11;;;;;;;;;33.25;30.25;;;;;4.55;71.79;101653.50;5067417;28;11461;-77
2021/03/03 01:29:07;;;;;;;;;39.25;33.00;;;;;4.45;71.94;101660.56;5078869;28;11498;-75
2021/03/03 01:32:02;;;;;;;;;24.50;23.50;;;;;4.47;71.83;101657.56;5082905;28;11454;-75
2021/03/03 01:34:58;;;;;;;;;30.00;28.75;;;;;4.46;71.82;101664.97;5086454;28;11482;-76
2021/03/03 01:37:54;;;;;;;;;32.75;31.75;;;;;4.37;72.35;101665.69;5067708;28;12187;-76
2021/03/03 01:40:52;;;;;;;;;37.25;30.50;;;;;4.54;71.92;101671.03;5068746;28;11458;-76
2021/03/03 01:43:48;;;;;;;;;24.00;22.75;;;;;4.30;72.41;101671.44;5066729;28;11501;-77
2021/03/03 01:46:16;;;;;;;;;27.75;24.75;;;;;4.41;72.30;101675.06;5087007;28;12164;-77
2021/03/03 01:49:11;;;;;;;;;36.25;36.25;;;;;4.49;71.96;101676.47;5074128;28;11476;-77
2021/03/03 01:51:42;;;;;;;;;32.50;30.75;;;;;4.44;72.10;101680.81;5087872;28;11544;-77
2021/03/03 01:54:38;;;;;;;;;2.00;0.00;;;;;4.37;72.39;101684.88;5087004;28;11583;-76
2021/03/03 01:57:36;;;;;;;;;31.50;27.50;;;;;4.44;71.98;101690.94;5085751;28;11387;-77
2021/03/03 02:00:32;;;;;;;;;26.50;24.75;;;;;4.38;72.10;101694.78;5085598;28;11460;-77
2021/03/03 02:03:28;;;;;;;;;27.25;25.75;;;;;4.30;72.77;101689.78;5086858;28;11507;-77
2021/03/03 02:06:29;;;;;;;;;28.50;27.75;;;;;4.31;72.72;101696.91;5084842;28;11467;-77
2021/03/03 02:09:31;;;;;;;;;31.00;30.75;;;;;4.63;71.74;101699.56;5084335;28;11490;-77
2021/03/03 02:12:31;;;;;;;;;33.50;32.25;;;;;4.37;72.22;101698.56;5069701;28;11509;-75
2021/03/03 02:15:30;;;;;;;;;30.75;27.25;;;;;4.47;71.98;101712.34;5083455;28;11488;-75
2021/03/03 02:18:31;;;;;;;;;23.50;23.00;;;;;4.38;72.55;101703.81;5074730;28;12214;-75
2021/03/03 02:22:08;;;;;;;;;24.75;24.75;;;;;4.21;73.15;101708.59;5072488;28;13581;-76
2021/03/03 02:25:25;;;;;;;;;26.75;25.50;;;;;4.50;72.11;101717.28;5079355;28;11521;-76
2021/03/03 02:28:22;;;;;;;;;26.25;25.50;;;;;4.44;72.13;101718.34;5086817;28;11451;-76
2021/03/03 02:31:05;;;;;;;;;27.25;25.50;;;;;4.37;72.17;101726.81;5085400;28;11495;-75
2021/03/03 02:34:05;;;;;;;;;23.75;23.75;;;;;4.32;72.55;101726.78;5071340;28;11594;-75
2021/03/03 02:37:02;;;;;;;;;19.50;19.50;;;;;4.29;72.27;101737.41;5069987;28;11474;-76
2021/03/03 02:39:58;;;;;;;;;24.75;24.75;;;;;4.34;72.24;101731.97;5083574;28;11458;-76
2021/03/03 02:42:56;;;;;;;;;24.75;22.75;;;;;4.34;72.20;101746.50;5074846;28;11496;-76
2021/03/03 02:45:53;;;;;;;;;28.25;23.25;;;;;4.50;71.78;101739.19;5084238;28;12412;-76
2021/03/03 02:48:49;;;;;;;;;29.25;28.00;;;;;4.57;71.24;101748.00;5085707;28;12171;-77
2021/03/03 02:51:16;;;;;;;;;37.00;34.25;;;;;4.38;71.77;101752.28;5087167;28;12334;-76
2021/03/03 02:53:43;;;;;;;;;28.50;28.25;;;;;4.13;72.58;101753.72;5084903;28;11458;-76
2021/03/03 02:56:40;;;;;;;;;31.25;27.25;;;;;4.24;72.16;101762.03;5080549;28;11468;-76
2021/03/03 02:59:45;;;;;;;;;28.25;25.75;;;;;4.07;72.48;101757.53;5085519;28;11463;-75
2021/03/03 03:02:41;;;;;;;;;26.00;25.00;;;;;4.08;72.94;101761.91;5041650;28;11559;-77
2021/03/03 03:05:46;;;;;;;;;27.50;24.50;;;;;4.14;72.57;101763.63;5045234;28;12270;-75
2021/03/03 03:08:47;;;;;;;;;26.50;23.75;;;;;4.22;72.27;101770.53;5043952;28;11541;-76
2021/03/03 03:11:51;;;;;;;;;24.50;22.75;;;;;4.00;72.63;101784.31;5043748;28;11525;-75
2021/03/03 03:14:51;;;;;;;;;16.50;16.50;;;;;3.95;72.41;101778.78;5043229;28;11538;-76
2021/03/03 03:17:52;;;;;;;;;20.00;20.00;;;;;4.08;72.96;101792.03;5064930;28;11471;-76
2021/03/03 03:20:52;;;;;;;;;30.00;25.00;;;;;4.09;72.52;101795.59;5084537;28;11447;-77
2021/03/03 03:23:45;;;;;;;;;26.75;26.25;;;;;3.93;72.46;101797.38;5086664;28;11479;-78
2021/03/03 03:26:36;;;;;;;;;19.25;18.75;;;;;3.91;72.99;101802.28;5074900;28;11467;-77
2021/03/03 03:29:34;;;;;;;;;24.50;23.25;;;;;3.88;72.62;101802.78;5086283;28;11481;-77
2021/03/03 03:32:16;;;;;;;;;26.00;22.25;;;;;3.96;72.27;101813.25;5086996;28;11518;-77
2021/03/03 03:34:44;;;;;;;;;28.75;28.00;;;;;3.87;72.81;101812.09;5068602;28;11475;-77
2021/03/03 03:37:41;;;;;;;;;29.75;29.75;;;;;3.95;72.83;101819.00;5083785;28;11501;-78
2021/03/03 03:40:37;;;;;;;;;21.25;21.25;;;;;3.89;72.59;101816.22;5084220;28;11449;-77
2021/03/03 03:43:34;;;;;;;;;24.25;24.25;;;;;3.79;73.01;101818.84;5081292;28;11486;-78
2021/03/03 03:46:05;;;;;;;;;22.00;21.75;;;;;3.82;72.75;101823.78;5078670;28;11470;-77
2021/03/03 03:49:01;;;;;;;;;25.50;22.25;;;;;3.81;72.48;101819.41;5087672;28;11476;-78
2021/03/03 03:51:56;;;;;;;;;27.00;24.50;;;;;3.68;73.06;101825.31;5087309;28;11526;-76
2021/03/03 03:54:53;;;;;;;;;29.00;19.50;;;;;3.76;72.80;101827.59;5087932;28;11497;-78
2021/03/03 03:57:51;;;;;;;;;26.25;24.50;;;;;3.82;72.32;101823.78;5085336;28;11505;-76
2021/03/03 04:00:48;;;;;;;;;28.50;26.00;;;;;3.93;71.84;101823.91;5083951;28;11479;-77
2021/03/03 04:03:43;;;;;;;;;19.75;19.75;;;;;3.76;72.31;101832.25;5084880;28;11442;-77
2021/03/03 04:06:39;;;;;;;;;18.00;17.50;;;;;3.56;73.66;101833.66;5083423;28;11604;-76
2021/03/03 04:09:34;;;;;;;;;19.50;19.50;;;;;3.63;73.01;101838.94;5084280;28;11535;-77
2021/03/03 04:12:30;;;;;;;;;21.75;18.75;;;;;3.49;73.01;101837.66;5076976;28;11442;-77
2021/03/03 04:15:26;;;;;;;;;17.75;17.75;;;;;3.63;72.87;101837.03;5082948;28;11455;-77
2021/03/03 04:17:55;;;;;;;;;16.00;15.25;;;;;3.48;73.31;101842.31;5080974;28;11470;-75
2021/03/03 04:20:51;;;;;;;;;16.50;16.50;;;;;3.51;73.17;101846.44;5082190;28;11480;-77
2021/03/03 04:23:46;;;;;;;;;20.75;19.00;;;;;3.52;73.09;101846.16;5083747;28;11482;-77
2021/03/03 04:26:42;;;;;;;;;20.00;18.50;;;;;3.62;72.50;101853.69;5072037;28;11553;-77
2021/03/03 04:29:38;;;;;;;;;17.50;16.00;;;;;3.61;72.60;101858.34;5082095;28;11460;-76
2021/03/03 04:32:33;;;;;;;;;21.50;19.75;;;;;3.60;72.72;101864.03;5087865;28;11481;-77
2021/03/03 04:35:29;;;;;;;;;18.25;18.25;;;;;3.53;72.05;101874.38;5067509;28;11467;-76
2021/03/03 04:38:24;;;;;;;;;21.00;19.25;;;;;3.78;71.70;101873.84;5082308;28;11661;-76
2021/03/03 04:40:52;;;;;;;;;26.00;26.00;;;;;3.65;71.98;101879.72;5082963;28;11482;-77
2021/03/03 04:43:47;;;;;;;;;28.25;27.00;;;;;3.75;71.80;101888.84;5069302;28;11458;-76
2021/03/03 04:46:15;;;;;;;;;27.00;23.50;;;;;3.71;71.94;101893.19;5081459;28;12270;-77
2021/03/03 04:49:10;;;;;;;;;22.25;22.25;;;;;3.64;71.27;101895.28;5071273;28;11463;-75
2021/03/03 04:52:06;;;;;;;;;27.00;27.00;;;;;3.74;71.09;101908.25;5084323;28;11443;-76
2021/03/03 04:55:03;;;;;;;;;10.00;8.75;;;;;3.65;70.96;101904.31;5066789;28;11465;-77
2021/03/03 04:57:58;;;;;;;;;23.75;21.50;;;;;3.75;70.55;101913.47;5078811;28;11457;-76
2021/03/03 05:00:55;;;;;;;;;14.50;14.50;;;;;3.85;70.11;101910.06;5083175;28;11432;-77
2021/03/03 05:03:52;;;;;;;;;18.75;18.75;;;;;4.04;69.94;101913.25;5068134;28;11455;-76
2021/03/03 05:06:48;;;;;;;;;24.00;17.50;;;;;4.04;69.41;101922.28;5083247;28;11596;-77
2021/03/03 05:09:44;;;;;;;;;19.75;19.75;;;;;4.07;69.01;101927.28;5086403;28;12202;-76
2021/03/03 05:12:39;;;;;;;;;10.00;10.00;;;;;4.00;69.07;101931.31;5074632;28;11454;-77
2021/03/03 05:15:35;;;;;;;;;9.50;9.50;;;;;4.08;68.87;101948.09;5083600;28;11427;-76
2021/03/03 05:18:30;;;;;;;;;14.25;14.25;;;;;4.16;68.28;101944.91;5082773;28;11466;-76
2021/03/03 05:21:26;;;;;;;;;16.00;16.00;;;;;4.28;68.52;101952.94;5082847;28;11402;-75
2021/03/03 05:24:09;;;;;;;;;12.75;12.75;;;;;4.18;68.63;101953.66;5086094;28;11495;-76
2021/03/03 05:27:04;;;;;;;;;16.25;16.25;;;;;4.32;67.86;101953.28;5085806;28;11550;-76
2021/03/03 05:29:40;;;;;;;;;16.00;12.50;;;;;4.36;67.25;101959.88;5065894;28;11484;-75
2021/03/03 05:32:36;;;;;;;;;15.00;14.75;;;;;4.17;67.35;101962.97;5090534;28;11457;-73
2021/03/03 05:35:31;;;;;;;;;12.50;11.75;;;;;4.39;66.91;101968.41;5082900;28;11453;-71
2021/03/03 05:38:28;;;;;;;;;12.00;12.00;;;;;4.39;66.71;101981.28;5083172;28;11436;-74
2021/03/03 05:41:26;;;;;;;;;11.75;11.25;;;;;4.25;66.89;101977.28;5087590;28;12147;-73
2021/03/03 05:43:56;;;;;;;;;12.00;12.00;;;;;4.41;67.04;101977.19;5085830;28;11487;-74
2021/03/03 05:46:24;;;;;;;;;15.75;13.50;;;;;4.43;67.40;101980.50;5086383;28;12157;-74
2021/03/03 05:49:02;;;;;;;;;13.00;13.00;;;;;4.45;67.26;101988.47;5087799;28;11555;-74
2021/03/03 05:51:59;;;;;;;;;12.00;12.00;;;;;4.63;67.19;101990.00;5084405;28;11454;-74
2021/03/03 05:54:27;;;;;;;;;10.00;10.00;;;;;4.42;68.21;101998.03;5086224;28;11427;-75
2021/03/03 05:57:23;;;;;;;;;11.00;11.00;;;;;4.49;68.39;101988.78;5073180;28;12116;-75
2021/03/03 06:00:19;;;;;;;;;11.00;11.00;;;;;4.64;68.52;101991.66;5067105;28;11555;-73
2021/03/03 06:03:18;;;;;;;;;17.00;15.50;;;;;4.69;68.71;101998.03;5087208;28;11396;-73
2021/03/03 06:06:15;;;;;;;;;16.50;16.00;;;;;4.68;68.67;102001.88;5084551;28;11526;-74
2021/03/03 06:09:11;;;;;;;;;13.75;13.75;;;;;4.88;68.19;102003.13;5088122;28;11556;-74
2021/03/03 06:12:07;;;;;;;;;12.75;12.75;;;;;4.89;68.48;102013.81;5087669;28;11450;-75
2021/03/03 06:15:03;;;;;;;;;15.50;12.25;;;;;4.85;68.43;102014.63;5069446;28;11602;-75
2021/03/03 06:17:59;;;;;;;;;14.50;13.00;;;;;4.88;68.76;102014.09;5072899;28;11445;-75
2021/03/03 06:20:57;;;;;;;;;12.50;12.50;;;;;4.80;68.74;102009.09;5083470;28;11460;-75
2021/03/03 06:24:03;;;;;;;;;15.75;15.75;;;;;4.98;68.25;102019.66;5087932;28;11556;-73
2021/03/03 06:27:02;;;;;;;;;14.50;14.50;;;;;4.95;68.36;102022.94;5085838;28;11448;-75
2021/03/03 06:30:07;;;;;;;;;14.00;14.00;;;;;4.99;68.36;102022.16;5079106;28;11478;-74
2021/03/03 06:33:03;;;;;;;;;13.25;13.25;;;;;5.23;67.86;102036.34;5085617;28;11437;-73
2021/03/03 06:35:59;;;;;;;;;14.50;14.50;;;;;5.05;68.57;102033.97;5093385;28;11491;-73
2021/03/03 06:38:55;;;;;;;;;10.25;10.25;;;;;4.89;68.97;102043.16;5086017;28;11466;-73
2021/03/03 06:42:05;;;;;;;;;16.50;16.50;;;;;5.25;68.37;102042.38;5084900;28;10917;-72
2021/03/03 06:45:01;;;;;;;;;16.50;16.50;;;;;5.36;67.91;102047.94;5084447;28;11582;-74
2021/03/03 06:47:48;;;;;;;;;16.25;16.00;;;;;5.32;67.74;102050.38;5070000;28;11539;-73
2021/03/03 06:50:36;;;;;;;;;16.75;13.00;;;;;5.13;68.99;102049.94;5085697;28;11536;-73
2021/03/03 06:53:32;;;;;;;;;15.75;15.75;;;;;5.12;68.18;102053.78;5084478;28;11527;-74
2021/03/03 06:56:42;;;;;;;;;17.25;17.25;;;;;5.02;68.66;102061.94;5079398;28;11549;-73
2021/03/03 06:59:30;;;;;;;;;17.75;17.00;;;;;5.11;68.76;102065.84;5088543;28;12172;-74
2021/03/03 07:02:18;;;;;;;;;17.25;17.25;;;;;5.11;68.61;102063.09;5085318;28;12293;-74
2021/03/03 07:05:05;;;;;;;;;23.50;20.75;;;;;5.15;68.65;102071.66;5085189;28;11462;-74
2021/03/03 07:08:01;;;;;;;;;18.25;18.25;;;;;5.52;67.56;102064.28;5085889;28;11483;-72
2021/03/03 07:10:57;;;;;;;;;15.25;15.25;;;;;5.70;67.05;102070.41;5075417;28;11582;-74
2021/03/03 07:13:39;;;;;;;;;20.50;20.25;;;;;5.66;66.68;102067.38;5085399;28;11571;-74
2021/03/03 07:16:34;;;;;;;;;16.50;16.50;;;;;5.85;65.48;102070.53;5073884;28;11469;-74
2021/03/03 07:19:33;;;;;;;;;16.25;16.25;;;;;5.77;65.47;102066.34;5082883;28;11547;-74
2021/03/03 07:22:32;;;;;;;;;17.00;16.75;;;;;5.76;64.69;102069.38;5070726;28;11484;-74
2021/03/03 07:25:28;;;;;;;;;14.25;14.25;;;;;5.70;64.88;102067.69;5065478;28;11472;-75
2021/03/03 07:28:24;;;;;;;;;14.00;14.00;;;;;5.77;64.49;102071.03;5072691;28;11459;-73
2021/03/03 07:31:22;;;;;;;;;13.00;13.00;;;;;5.98;64.43;102055.50;5072086;28;11552;-74
2021/03/03 07:33:55;;;;;;;;;11.75;11.75;;;;;6.01;63.55;102068.72;5080202;28;11437;-75
2021/03/03 07:36:23;;;;;;;;;21.25;19.75;;;;;6.16;62.29;102063.31;5083157;28;11481;-74
2021/03/03 07:38:56;;;;;;;;;13.25;11.00;;;;;5.69;63.07;102066.03;5087528;28;11572;-74
2021/03/03 07:41:45;;;;;;;;;16.50;16.00;;;;;5.89;62.94;102062.56;5078018;28;12195;-73
2021/03/03 07:44:42;;;;;;;;;21.00;21.00;;;;;5.98;63.06;102064.59;5084494;28;11666;-74
2021/03/03 07:47:38;;;;;;;;;28.25;28.00;;;;;6.38;61.87;102063.13;5061720;28;11447;-74
2021/03/03 07:50:34;;;;;;;;;15.25;15.25;;;;;6.32;61.47;102067.75;5084021;28;11503;-75
2021/03/03 07:53:37;;;;;;;;;23.25;23.25;;;;;6.37;61.68;102067.78;5082165;28;11463;-75
2021/03/03 07:56:08;;;;;;;;;20.00;19.00;;;;;6.48;61.05;102065.06;5064493;28;11504;-74
2021/03/03 07:58:55;;;;;;;;;24.00;24.00;;;;;6.73;60.77;102076.13;5088832;28;11453;-74
2021/03/03 08:01:37;;;;;;;;;19.50;18.50;;;;;6.64;59.97;102075.00;5090493;28;11570;-73
2021/03/03 08:04:35;;;;;;;;;34.75;33.50;;;;;6.25;61.31;102077.34;5086544;28;11477;-74
2021/03/03 08:07:26;;;;;;;;;31.50;30.50;;;;;6.52;60.48;102072.50;5072274;28;11533;-73
2021/03/03 08:10:23;;;;;;;;;35.25;33.75;;;;;6.81;59.61;102080.28;5081844;28;11528;-75
2021/03/03 08:13:04;;;;;;;;;35.25;34.75;;;;;7.20;58.44;102075.09;5065465;28;11513;-75
2021/03/03 08:16:02;;;;;;;;;31.75;30.50;;;;;7.07;59.53;102075.66;5071479;28;11472;-74
2021/03/03 08:18:36;;;;;;;;;31.50;31.25;;;;;7.01;60.40;102077.56;5072515;28;11483;-74
2021/03/03 08:21:16;;;;;;;;;22.75;21.25;;;;;7.49;59.00;102076.19;5084296;28;11565;-74
2021/03/03 08:23:51;;;;;;;;;12.25;11.25;;;;;7.44;59.04;102072.63;5084680;28;11469;-74
2021/03/03 08:26:50;;;;;;;;;11.75;10.00;;;;;7.72;58.88;102074.78;5070743;28;11448;-75
2021/03/03 08:30:15;;;;;;;;;16.50;12.00;;;;;7.85;58.17;102078.91;5069879;28;11404;-75
2021/03/03 08:32:44;;;;;;;;;7.00;7.00;;;;;8.16;57.79;102076.88;5067207;28;11471;-75
2021/03/03 08:35:32;;;;;;;;;7.25;7.25;;;;;8.30;56.84;102085.38;5083537;28;11382;-74
2021/03/03 08:38:30;;;;;;;;;10.25;10.25;;;;;8.98;56.11;102102.19;5082364;28;11400;-74
2021/03/03 08:41:28;;;;;;;;;7.75;7.75;;;;;8.97;55.18;102099.69;5070092;28;11384;-74
2021/03/03 08:44:24;;;;;;;;;11.50;11.50;;;;;9.54;54.85;102100.91;5066242;28;11355;-74
2021/03/03 08:47:48;;;;;;;;;10.50;10.50;;;;;9.39;54.62;102099.09;5083089;28;11418;-74
2021/03/03 08:50:46;;;;;;;;;8.75;8.75;;;;;9.19;54.39;102097.31;5083119;28;11445;-74
2021/03/03 08:53:53;;;;;;;;;10.50;10.50;;;;;9.08;55.05;102096.56;5070320;28;11324;-74
2021/03/03 08:56:40;;;;;;;;;9.75;9.75;;;;;9.25;55.84;102107.22;5065014;28;11299;-74
2021/03/03 08:59:40;;;;;;;;;7.50;7.50;;;;;9.65;54.52;102106.03;5082816;28;11430;-76
2021/03/03 09:02:40;;;;;;;;;6.00;6.00;;;;;9.46;54.84;102108.72;5082966;28;12257;-75
2021/03/03 09:05:36;;;;;;;;;8.00;8.00;;;;;9.78;53.91;102118.38;5081279;28;12193;-74
2021/03/03 09:08:32;;;;;;;;;8.25;8.25;;;;;9.09;54.23;102119.47;5082827;28;11187;-74
2021/03/03 09:11:28;;;;;;;;;7.50;6.25;;;;;9.85;53.47;102109.75;5083371;28;11192;-74
2021/03/03 09:14:23;;;;;;;;;9.00;9.00;;;;;9.95;51.99;102106.88;5083204;28;11363;-75
2021/03/03 09:17:31;;;;;;;;;8.50;8.50;;;;;9.97;52.26;102110.19;5083269;28;11399;-73
2021/03/03 09:20:29;;;;;;;;;7.00;7.00;;;;;10.27;51.42;102114.56;5079382;28;11024;-74
2021/03/03 09:23:26;;;;;;;;;9.50;9.50;;;;;9.74;52.99;102109.84;5081115;28;10955;-73
2021/03/03 09:26:23;;;;;;;;;7.25;7.25;;;;;9.18;53.00;102117.75;5080701;28;11668;-74
2021/03/03 09:29:28;;;;;;;;;10.25;10.25;;;;;9.52;53.69;102120.56;5081163;28;10886;-74
2021/03/03 09:32:24;;;;;;;;;11.00;9.50;;;;;9.50;54.39;102120.00;5082269;28;11197;-74
2021/03/03 09:35:01;;;;;;;;;4.50;4.50;;;;;9.92;53.87;102138.69;5064443;28;11384;-74
2021/03/03 09:37:46;;;;;;;;;11.00;11.00;;;;;10.42;52.41;102132.91;5083654;28;11098;-74
2021/03/03 09:40:41;;;;;;;;;6.25;6.25;;;;;10.19;52.21;102126.25;5081448;28;10882;-76
2021/03/03 09:43:38;;;;;;;;;11.75;11.75;;;;;10.26;52.40;102137.81;5078989;28;10785;-74
2021/03/03 09:46:56;;;;;;;;;14.00;14.00;;;;;10.41;51.03;102134.03;5082479;28;11722;-74
2021/03/03 09:49:52;;;;;;;;;14.50;14.50;;;;;10.46;51.57;102134.00;5081155;28;10757;-73
2021/03/03 09:52:50;;;;;;;;;8.50;8.50;;;;;10.77;51.97;102132.47;5082562;28;10922;-74
2021/03/03 09:55:45;;;;;;;;;7.75;7.25;;;;;10.29;50.66;102149.13;5067244;28;10742;-74
2021/03/03 09:58:41;;;;;;;;;9.75;9.00;;;;;10.64;50.73;102138.72;5079338;28;10651;-74
2021/03/03 10:01:37;;;;;;;;;13.25;13.25;;;;;10.74;51.16;102144.16;5079485;28;11055;-76
2021/03/03 10:04:27;;;;;;;;;13.00;13.00;;;;;11.08;51.27;102137.59;5089852;28;10917;-75
2021/03/03 10:07:28;;;;;;;;;12.25;12.25;;;;;11.33;49.48;102145.50;5085870;28;10834;-76
2021/03/03 10:10:21;;;;;;;;;10.50;10.50;;;;;11.47;50.16;102134.50;5087879;28;10754;-74
2021/03/03 10:12:49;;;;;;;;;5.50;5.50;;;;;11.08;48.54;102140.34;5086677;28;10451;-75
2021/03/03 10:15:45;;;;;;;;;10.00;10.00;;;;;10.78;50.01;102136.06;5084528;28;10352;-74
2021/03/03 10:18:56;;;;;;;;;6.50;6.50;;;;;11.05;48.41;102129.91;5085942;28;10699;-75
2021/03/03 10:21:52;;;;;;;;;9.75;9.75;;;;;11.16;48.61;102139.69;5084991;28;10610;-75
2021/03/03 10:24:55;;;;;;;;;7.75;7.75;;;;;10.88;48.37;102132.34;5082082;28;10606;-75
2021/03/03 10:28:19;;;;;;;;;7.00;7.00;;;;;10.77;48.85;102131.66;5083682;28;10490;-74
2021/03/03 10:31:23;;;;;;;;;6.00;6.00;;;;;10.43;48.14;102140.13;5077791;28;10442;-74
2021/03/03 10:33:51;;;;;;;;;6.75;6.75;;;;;10.20;48.26;102136.22;5085525;28;11218;-73
2021/03/03 10:36:21;;;;;;;;;6.50;6.50;;;;;10.40;48.76;102126.88;5084398;28;10449;-74
2021/03/03 10:38:54;;;;;;;;;7.75;7.25;;;;;10.63;48.74;102133.50;5085602;28;11467;-73
2021/03/03 10:41:33;;;;;;;;;5.00;5.00;;;;;10.66;47.07;102119.91;5084345;28;10623;-73
2021/03/03 10:44:05;;;;;;;;;6.00;6.00;;;;;11.30;47.21;102120.38;5084477;28;10417;-74
2021/03/03 10:47:00;;;;;;;;;5.50;5.50;;;;;11.79;45.73;102108.72;5072331;28;10530;-74
2021/03/03 10:50:04;;;;;;;;;4.50;4.50;;;;;12.06;43.47;102112.72;5086651;28;10441;-73
2021/03/03 10:53:02;;;;;;;;;9.00;9.00;;;;;11.09;45.98;102108.78;5083120;28;10347;-74
2021/03/03 10:55:58;;;;;;;;;5.25;5.25;;;;;11.08;46.58;102112.66;5078287;28;10580;-74
2021/03/03 10:58:57;;;;;;;;;6.25;6.25;;;;;11.18;46.17;102106.16;5085347;28;10555;-74
2021/03/03 11:01:57;;;;;;;;;6.00;6.00;;;;;10.78;46.99;102113.94;5068381;28;11074;-75
2021/03/03 11:04:46;;;;;;;;;6.50;6.50;;;;;10.28;47.50;102121.75;5053409;28;10763;-74
2021/03/03 11:07:41;;;;;;;;;7.50;7.50;;;;;9.78;47.63;102114.78;5083578;28;10424;-75
2021/03/03 11:10:37;;;;;;;;;20.25;19.25;;;;;9.63;47.46;102112.97;5091772;28;10696;-74
2021/03/03 11:13:34;;;;;;;;;18.75;18.25;;;;;9.93;46.30;102118.22;5078279;28;11159;-73
2021/03/03 11:16:30;;;;;;;;;13.50;12.00;;;;;10.32;45.13;102113.69;5084599;28;11485;-74
2021/03/03 11:19:27;;;;;;;;;14.50;13.50;;;;;10.72;44.19;102112.34;5068811;28;12200;-74
2021/03/03 11:22:23;;;;;;;;;19.50;19.50;;;;;10.36;42.70;102129.41;5073515;28;11121;-74
2021/03/03 11:25:18;;;;;;;;;27.25;24.00;;;;;9.91;43.57;102119.63;5071631;28;10978;-75
2021/03/03 11:28:14;;;;;;;;;9.00;8.75;;;;;10.30;41.73;102123.09;5086228;28;11405;-74
2021/03/03 11:30:43;;;;;;;;;12.00;11.75;;;;;10.39;40.47;102126.03;5083136;28;11086;-73
2021/03/03 11:33:10;;;;;;;;;7.00;7.00;;;;;10.61;40.73;102138.50;5084758;28;11066;-73
2021/03/03 11:35:38;;;;;;;;;6.00;6.00;;;;;10.60;41.66;102131.34;5050000;28;11657;-72
2021/03/03 11:38:07;;;;;;;;;7.00;7.00;;;;;11.41;41.83;102130.16;5084174;28;10789;-72
2021/03/03 11:40:35;;;;;;;;;11.25;8.75;;;;;11.29;41.36;102130.63;5083646;28;10735;-74
2021/03/03 11:43:31;;;;;;;;;4.00;4.00;;;;;11.36;40.61;102131.06;5083023;28;10662;-74
2021/03/03 11:45:59;;;;;;;;;14.00;13.00;;;;;11.52;40.96;102134.41;5082993;28;10590;-74
2021/03/03 11:48:54;;;;;;;;;9.00;9.00;;;;;12.48;40.28;102140.16;5069438;28;10879;-73
2021/03/03 11:51:50;;;;;;;;;25.25;23.25;;;;;13.22;39.89;102139.97;5084485;28;10495;-74
2021/03/03 11:54:45;;;;;;;;;7.50;5.50;;;;;13.43;38.96;102140.31;5082930;28;10487;-73
2021/03/03 11:57:41;;;;;;;;;13.00;13.00;;;;;12.78;37.60;102157.31;5084107;28;10914;-74
2021/03/03 12:00:37;;;;;;;;;22.00;19.00;;;;;12.64;38.75;102159.25;5084619;28;10005;-74
2021/03/03 12:03:33;;;;;;;;;20.00;19.50;;;;;11.94;38.69;102169.47;5080741;28;10517;-74
2021/03/03 12:06:28;;;;;;;;;27.75;27.75;;;;;11.38;39.46;102173.13;5088630;28;10390;-75
2021/03/03 12:09:24;;;;;;;;;21.50;20.00;;;;;10.64;40.27;102183.00;5088136;28;10726;-73
2021/03/03 12:12:20;;;;;;;;;27.25;27.25;;;;;10.08;42.26;102189.13;5085391;28;10794;-74
2021/03/03 12:15:16;;;;;;;;;21.50;21.50;;;;;10.41;41.24;102178.28;5083905;28;11131;-74
2021/03/03 12:17:45;;;;;;;;;18.25;17.75;;;;;11.18;41.34;102175.38;5085063;28;11138;-74
2021/03/03 12:20:41;;;;;;;;;22.75;22.00;;;;;10.93;40.42;102180.16;5083621;28;10928;-75
2021/03/03 12:23:37;;;;;;;;;17.75;16.25;;;;;10.71;40.50;102177.13;5069950;28;11978;-75
2021/03/03 12:26:32;;;;;;;;;17.50;16.50;;;;;11.10;40.68;102180.47;5082758;28;11006;-76
2021/03/03 12:29:28;;;;;;;;;19.75;19.50;;;;;10.76;41.31;102186.19;5081908;28;10920;-73
2021/03/03 12:32:23;;;;;;;;;18.25;17.50;;;;;10.87;40.48;102184.09;5080794;28;11165;-74
2021/03/03 12:35:19;;;;;;;;;21.00;20.00;;;;;10.92;41.29;102186.00;5083252;28;10699;-74
2021/03/03 12:38:15;;;;;;;;;17.25;17.00;;;;;10.72;40.42;102182.34;5083586;28;11064;-75
2021/03/03 12:41:12;;;;;;;;;16.75;15.75;;;;;10.34;41.44;102183.34;5069246;28;11092;-75
2021/03/03 12:43:43;;;;;;;;;12.50;11.75;;;;;10.36;41.88;102189.44;5081077;28;11186;-74
2021/03/03 12:46:09;;;;;;;;;10.00;9.75;;;;;10.96;41.87;102187.03;5082468;28;10760;-74
2021/03/03 12:49:05;;;;;;;;;21.25;15.50;;;;;11.47;40.15;102192.69;5084729;28;10600;-74
2021/03/03 12:52:02;;;;;;;;;27.00;27.00;;;;;11.86;40.42;102185.97;5090816;28;10972;-74
2021/03/03 12:54:58;;;;;;;;;23.25;21.50;;;;;11.72;39.76;102194.22;5088205;28;10998;-73
2021/03/03 12:57:54;;;;;;;;;20.50;20.25;;;;;10.94;41.12;102190.09;5074975;28;10977;-75
2021/03/03 13:00:50;;;;;;;;;21.25;21.25;;;;;9.97;43.24;102190.34;5083330;28;10886;-75
2021/03/03 13:03:45;;;;;;;;;17.50;17.50;;;;;10.02;43.06;102193.84;5083333;28;11143;-74
2021/03/03 13:06:41;;;;;;;;;15.75;14.25;;;;;9.90;43.14;102195.38;5082664;28;11012;-75
2021/03/03 13:09:36;;;;;;;;;18.75;18.50;;;;;9.99;42.82;102186.16;5081939;28;11079;-74
2021/03/03 13:12:32;;;;;;;;;15.00;15.00;;;;;9.99;43.50;102183.41;5082338;28;11303;-74